sensor_id;sensor_type;location;lat;lon;timestamp;temperature;humidity
29201;DHT22;16244;51.956;12.980;2022-11-06T00:01:37;4.50;95.50
29201;DHT22;16244;51.956;12.980;2022-11-06T00:04:04;4.50;95.50
29201;DHT22;16244;51.956;12.980;2022-11-06T00:06:32;4.50;95.50
29201;DHT22;16244;51.956;12.980;2022-11-06T00:09:16;4.40;95.60
29201;DHT22;16244;51.956;12.980;2022-11-06T00:11:44;4.40;95.60
29201;DHT22;16244;51.956;12.980;2022-11-06T00:14:11;4.40;95.50
29201;DHT22;16244;51.956;12.980;2022-11-06T00:16:41;4.40;95.50
29201;DHT22;16244;51.956;12.980;2022-11-06T00:19:09;4.40;95.50
29201;DHT22;16244;51.956;12.980;2022-11-06T00:21:36;4.40;95.60
29201;DHT22;16244;51.956;12.980;2022-11-06T00:24:05;4.40;95.70
29201;DHT22;16244;51.956;12.980;2022-11-06T00:26:33;4.40;95.70
29201;DHT22;16244;51.956;12.980;2022-11-06T00:29:02;4.40;95.80
29201;DHT22;16244;51.956;12.980;2022-11-06T00:31:31;4.40;95.90
29201;DHT22;16244;51.956;12.980;2022-11-06T00:34:03;4.40;95.80
29201;DHT22;16244;51.956;12.980;2022-11-06T00:36:31;4.50;95.80
29201;DHT22;16244;51.956;12.980;2022-11-06T00:38:59;4.40;95.70
29201;DHT22;16244;51.956;12.980;2022-11-06T00:41:27;4.40;95.70
29201;DHT22;16244;51.956;12.980;2022-11-06T00:43:55;4.50;95.70
29201;DHT22;16244;51.956;12.980;2022-11-06T00:46:23;4.40;96.10
29201;DHT22;16244;51.956;12.980;2022-11-06T00:48:51;4.40;95.70
29201;DHT22;16244;51.956;12.980;2022-11-06T00:51:21;4.40;95.70
29201;DHT22;16244;51.956;12.980;2022-11-06T00:53:53;4.40;95.50
29201;DHT22;16244;51.956;12.980;2022-11-06T00:56:21;4.40;95.60
29201;DHT22;16244;51.956;12.980;2022-11-06T00:58:49;4.40;95.60
29201;DHT22;16244;51.956;12.980;2022-11-06T01:01:18;4.40;95.70
29201;DHT22;16244;51.956;12.980;2022-11-06T01:03:47;4.40;95.60
29201;DHT22;16244;51.956;12.980;2022-11-06T01:06:16;4.30;95.70
29201;DHT22;16244;51.956;12.980;2022-11-06T01:08:45;4.30;95.80
29201;DHT22;16244;51.956;12.980;2022-11-06T01:11:15;4.30;95.80
29201;DHT22;16244;51.956;12.980;2022-11-06T01:13:44;4.40;95.90
29201;DHT22;16244;51.956;12.980;2022-11-06T01:16:13;4.30;95.70
29201;DHT22;16244;51.956;12.980;2022-11-06T01:18:41;4.30;95.80
29201;DHT22;16244;51.956;12.980;2022-11-06T01:21:11;4.40;95.90
29201;DHT22;16244;51.956;12.980;2022-11-06T01:23:39;4.40;95.90
29201;DHT22;16244;51.956;12.980;2022-11-06T01:26:09;4.40;95.90
29201;DHT22;16244;51.956;12.980;2022-11-06T01:28:37;4.40;95.80
29201;DHT22;16244;51.956;12.980;2022-11-06T01:31:06;4.40;95.80
29201;DHT22;16244;51.956;12.980;2022-11-06T01:33:33;4.40;95.80
29201;DHT22;16244;51.956;12.980;2022-11-06T01:36:00;4.40;95.80
29201;DHT22;16244;51.956;12.980;2022-11-06T01:38:28;4.50;95.80
29201;DHT22;16244;51.956;12.980;2022-11-06T01:40:55;4.40;95.80
29201;DHT22;16244;51.956;12.980;2022-11-06T01:43:41;4.50;95.90
29201;DHT22;16244;51.956;12.980;2022-11-06T01:46:10;4.50;95.80
29201;DHT22;16244;51.956;12.980;2022-11-06T01:48:39;4.50;95.90
29201;DHT22;16244;51.956;12.980;2022-11-06T01:51:08;4.50;95.80
29201;DHT22;16244;51.956;12.980;2022-11-06T01:53:36;4.50;95.90
29201;DHT22;16244;51.956;12.980;2022-11-06T01:56:06;4.50;95.90
29201;DHT22;16244;51.956;12.980;2022-11-06T01:58:37;4.50;95.80
29201;DHT22;16244;51.956;12.980;2022-11-06T02:01:06;4.50;95.80
29201;DHT22;16244;51.956;12.980;2022-11-06T02:03:34;4.50;95.90
29201;DHT22;16244;51.956;12.980;2022-11-06T02:06:03;4.50;95.90
29201;DHT22;16244;51.956;12.980;2022-11-06T02:08:31;4.50;95.80
29201;DHT22;16244;51.956;12.980;2022-11-06T02:10:58;4.60;95.90
29201;DHT22;16244;51.956;12.980;2022-11-06T02:13:34;4.60;95.90
29201;DHT22;16244;51.956;12.980;2022-11-06T02:16:10;4.60;95.80
29201;DHT22;16244;51.956;12.980;2022-11-06T02:18:49;4.60;95.80
29201;DHT22;16244;51.956;12.980;2022-11-06T02:21:46;4.60;95.90
29201;DHT22;16244;51.956;12.980;2022-11-06T02:24:34;4.60;95.80
29201;DHT22;16244;51.956;12.980;2022-11-06T02:27:08;4.60;95.70
29201;DHT22;16244;51.956;12.980;2022-11-06T02:29:42;4.60;95.70
29201;DHT22;16244;51.956;12.980;2022-11-06T02:32:15;4.60;95.80
29201;DHT22;16244;51.956;12.980;2022-11-06T02:34:45;4.60;95.70
29201;DHT22;16244;51.956;12.980;2022-11-06T02:37:16;4.60;95.80
29201;DHT22;16244;51.956;12.980;2022-11-06T02:39:46;4.60;95.80
29201;DHT22;16244;51.956;12.980;2022-11-06T02:42:17;4.60;95.90
29201;DHT22;16244;51.956;12.980;2022-11-06T02:44:49;4.60;95.90
29201;DHT22;16244;51.956;12.980;2022-11-06T02:47:18;4.60;96.20
29201;DHT22;16244;51.956;12.980;2022-11-06T02:49:50;4.70;95.80
29201;DHT22;16244;51.956;12.980;2022-11-06T02:52:22;4.60;95.90
29201;DHT22;16244;51.956;12.980;2022-11-06T02:54:54;4.60;95.90
29201;DHT22;16244;51.956;12.980;2022-11-06T02:57:25;4.60;95.70
29201;DHT22;16244;51.956;12.980;2022-11-06T02:59:58;4.60;95.70
29201;DHT22;16244;51.956;12.980;2022-11-06T03:02:31;4.60;95.70
29201;DHT22;16244;51.956;12.980;2022-11-06T03:05:04;4.50;95.60
29201;DHT22;16244;51.956;12.980;2022-11-06T03:07:35;4.50;95.70
29201;DHT22;16244;51.956;12.980;2022-11-06T03:10:04;4.50;95.70
29201;DHT22;16244;51.956;12.980;2022-11-06T03:12:37;4.40;95.70
29201;DHT22;16244;51.956;12.980;2022-11-06T03:15:17;4.40;95.90
29201;DHT22;16244;51.956;12.980;2022-11-06T03:17:49;4.30;95.90
29201;DHT22;16244;51.956;12.980;2022-11-06T03:20:22;4.30;96.10
29201;DHT22;16244;51.956;12.980;2022-11-06T03:22:55;4.30;96.10
29201;DHT22;16244;51.956;12.980;2022-11-06T03:25:26;4.20;96.20
29201;DHT22;16244;51.956;12.980;2022-11-06T03:28:00;4.20;96.30
29201;DHT22;16244;51.956;12.980;2022-11-06T03:30:30;4.30;96.20
29201;DHT22;16244;51.956;12.980;2022-11-06T03:33:04;4.30;96.10
29201;DHT22;16244;51.956;12.980;2022-11-06T03:35:37;4.30;96.20
29201;DHT22;16244;51.956;12.980;2022-11-06T03:38:09;4.20;96.20
29201;DHT22;16244;51.956;12.980;2022-11-06T03:40:42;4.30;96.20
29201;DHT22;16244;51.956;12.980;2022-11-06T03:43:13;4.20;96.10
29201;DHT22;16244;51.956;12.980;2022-11-06T03:45:42;4.20;96.10
29201;DHT22;16244;51.956;12.980;2022-11-06T03:48:15;4.20;96.00
29201;DHT22;16244;51.956;12.980;2022-11-06T03:50:48;4.20;96.10
29201;DHT22;16244;51.956;12.980;2022-11-06T03:53:25;4.20;96.00
29201;DHT22;16244;51.956;12.980;2022-11-06T03:56:01;4.20;96.10
29201;DHT22;16244;51.956;12.980;2022-11-06T03:58:35;4.10;96.10
29201;DHT22;16244;51.956;12.980;2022-11-06T04:01:05;4.10;96.60
29201;DHT22;16244;51.956;12.980;2022-11-06T04:03:36;4.10;96.30
29201;DHT22;16244;51.956;12.980;2022-11-06T04:06:08;4.10;96.30
29201;DHT22;16244;51.956;12.980;2022-11-06T04:08:37;4.10;96.40
29201;DHT22;16244;51.956;12.980;2022-11-06T04:11:25;4.10;96.30
29201;DHT22;16244;51.956;12.980;2022-11-06T04:14:14;4.10;96.40
29201;DHT22;16244;51.956;12.980;2022-11-06T04:16:47;4.10;96.40
29201;DHT22;16244;51.956;12.980;2022-11-06T04:19:17;4.10;96.40
29201;DHT22;16244;51.956;12.980;2022-11-06T04:21:59;4.10;96.40
29201;DHT22;16244;51.956;12.980;2022-11-06T04:24:35;4.10;96.30
29201;DHT22;16244;51.956;12.980;2022-11-06T04:27:32;4.10;96.30
29201;DHT22;16244;51.956;12.980;2022-11-06T04:30:06;4.20;96.40
29201;DHT22;16244;51.956;12.980;2022-11-06T04:32:45;4.20;96.40
29201;DHT22;16244;51.956;12.980;2022-11-06T04:35:20;4.10;96.30
29201;DHT22;16244;51.956;12.980;2022-11-06T04:37:54;4.20;96.30
29201;DHT22;16244;51.956;12.980;2022-11-06T04:40:27;4.10;96.30
29201;DHT22;16244;51.956;12.980;2022-11-06T04:42:59;4.10;96.20
29201;DHT22;16244;51.956;12.980;2022-11-06T04:45:31;4.10;96.40
29201;DHT22;16244;51.956;12.980;2022-11-06T04:48:01;4.10;96.30
29201;DHT22;16244;51.956;12.980;2022-11-06T04:50:32;4.10;96.40
29201;DHT22;16244;51.956;12.980;2022-11-06T04:53:02;4.10;96.40
29201;DHT22;16244;51.956;12.980;2022-11-06T04:55:30;4.00;96.40
29201;DHT22;16244;51.956;12.980;2022-11-06T04:57:58;4.00;96.50
29201;DHT22;16244;51.956;12.980;2022-11-06T05:00:25;4.00;96.60
29201;DHT22;16244;51.956;12.980;2022-11-06T05:02:53;4.00;96.50
29201;DHT22;16244;51.956;12.980;2022-11-06T05:05:21;4.00;96.50
29201;DHT22;16244;51.956;12.980;2022-11-06T05:07:48;4.10;96.50
29201;DHT22;16244;51.956;12.980;2022-11-06T05:10:15;4.10;96.50
29201;DHT22;16244;51.956;12.980;2022-11-06T05:12:42;4.10;96.50
29201;DHT22;16244;51.956;12.980;2022-11-06T05:15:10;4.20;96.50
29201;DHT22;16244;51.956;12.980;2022-11-06T05:17:37;4.10;96.50
29201;DHT22;16244;51.956;12.980;2022-11-06T05:20:06;4.10;96.50
29201;DHT22;16244;51.956;12.980;2022-11-06T05:22:33;4.10;96.70
29201;DHT22;16244;51.956;12.980;2022-11-06T05:25:18;4.20;96.70
29201;DHT22;16244;51.956;12.980;2022-11-06T05:27:45;4.10;96.50
29201;DHT22;16244;51.956;12.980;2022-11-06T05:30:12;4.20;96.60
29201;DHT22;16244;51.956;12.980;2022-11-06T05:32:40;4.10;96.60
29201;DHT22;16244;51.956;12.980;2022-11-06T05:35:08;4.20;96.60
29201;DHT22;16244;51.956;12.980;2022-11-06T05:37:36;4.10;96.60
29201;DHT22;16244;51.956;12.980;2022-11-06T05:40:03;4.10;96.60
29201;DHT22;16244;51.956;12.980;2022-11-06T05:42:31;4.10;96.60
29201;DHT22;16244;51.956;12.980;2022-11-06T05:44:58;4.00;96.60
29201;DHT22;16244;51.956;12.980;2022-11-06T05:47:25;4.10;96.50
29201;DHT22;16244;51.956;12.980;2022-11-06T05:49:52;4.10;96.60
29201;DHT22;16244;51.956;12.980;2022-11-06T05:52:20;4.00;96.60
29201;DHT22;16244;51.956;12.980;2022-11-06T05:54:47;4.00;96.50
29201;DHT22;16244;51.956;12.980;2022-11-06T05:57:15;4.00;96.60
29201;DHT22;16244;51.956;12.980;2022-11-06T05:59:42;4.00;96.50
29201;DHT22;16244;51.956;12.980;2022-11-06T06:02:09;3.90;96.60
29201;DHT22;16244;51.956;12.980;2022-11-06T06:04:36;3.90;96.60
29201;DHT22;16244;51.956;12.980;2022-11-06T06:07:04;3.90;96.70
29201;DHT22;16244;51.956;12.980;2022-11-06T06:09:32;3.90;96.60
29201;DHT22;16244;51.956;12.980;2022-11-06T06:12:00;4.00;96.60
29201;DHT22;16244;51.956;12.980;2022-11-06T06:14:27;4.00;96.50
29201;DHT22;16244;51.956;12.980;2022-11-06T06:16:54;4.00;96.60
29201;DHT22;16244;51.956;12.980;2022-11-06T06:19:21;3.90;96.70
29201;DHT22;16244;51.956;12.980;2022-11-06T06:21:49;3.90;96.70
29201;DHT22;16244;51.956;12.980;2022-11-06T06:24:16;3.90;96.80
29201;DHT22;16244;51.956;12.980;2022-11-06T06:26:45;3.90;96.80
29201;DHT22;16244;51.956;12.980;2022-11-06T06:29:12;4.00;96.70
29201;DHT22;16244;51.956;12.980;2022-11-06T06:31:39;4.00;96.80
29201;DHT22;16244;51.956;12.980;2022-11-06T06:34:06;4.00;96.70
29201;DHT22;16244;51.956;12.980;2022-11-06T06:36:34;4.10;96.80
29201;DHT22;16244;51.956;12.980;2022-11-06T06:39:00;4.10;96.80
29201;DHT22;16244;51.956;12.980;2022-11-06T06:41:28;4.10;96.80
29201;DHT22;16244;51.956;12.980;2022-11-06T06:43:56;4.20;96.80
29201;DHT22;16244;51.956;12.980;2022-11-06T06:46:24;4.20;96.80
29201;DHT22;16244;51.956;12.980;2022-11-06T06:48:51;4.30;96.70
29201;DHT22;16244;51.956;12.980;2022-11-06T06:51:18;4.20;96.60
29201;DHT22;16244;51.956;12.980;2022-11-06T06:53:45;4.30;96.60
29201;DHT22;16244;51.956;12.980;2022-11-06T06:56:12;4.30;96.60
29201;DHT22;16244;51.956;12.980;2022-11-06T06:58:40;4.30;96.50
29201;DHT22;16244;51.956;12.980;2022-11-06T07:01:10;4.30;96.50
29201;DHT22;16244;51.956;12.980;2022-11-06T07:03:37;4.30;96.50
29201;DHT22;16244;51.956;12.980;2022-11-06T07:06:05;4.30;96.50
29201;DHT22;16244;51.956;12.980;2022-11-06T07:08:33;4.30;96.50
29201;DHT22;16244;51.956;12.980;2022-11-06T07:11:02;4.40;96.50
29201;DHT22;16244;51.956;12.980;2022-11-06T07:13:29;4.40;96.40
29201;DHT22;16244;51.956;12.980;2022-11-06T07:15:56;4.40;96.50
29201;DHT22;16244;51.956;12.980;2022-11-06T07:18:25;4.40;96.40
29201;DHT22;16244;51.956;12.980;2022-11-06T07:20:52;4.40;96.60
29201;DHT22;16244;51.956;12.980;2022-11-06T07:23:20;4.40;96.70
29201;DHT22;16244;51.956;12.980;2022-11-06T07:25:51;4.50;96.70
29201;DHT22;16244;51.956;12.980;2022-11-06T07:28:19;4.60;96.60
29201;DHT22;16244;51.956;12.980;2022-11-06T07:30:47;4.60;96.50
29201;DHT22;16244;51.956;12.980;2022-11-06T07:33:14;4.70;96.40
29201;DHT22;16244;51.956;12.980;2022-11-06T07:35:43;4.80;96.30
29201;DHT22;16244;51.956;12.980;2022-11-06T07:38:10;4.80;96.30
29201;DHT22;16244;51.956;12.980;2022-11-06T07:40:37;4.80;96.30
29201;DHT22;16244;51.956;12.980;2022-11-06T07:43:06;4.90;96.30
29201;DHT22;16244;51.956;12.980;2022-11-06T07:45:33;4.90;96.40
29201;DHT22;16244;51.956;12.980;2022-11-06T07:48:01;5.00;96.40
29201;DHT22;16244;51.956;12.980;2022-11-06T07:50:30;5.10;96.20
29201;DHT22;16244;51.956;12.980;2022-11-06T07:53:00;5.00;96.30
29201;DHT22;16244;51.956;12.980;2022-11-06T07:55:27;5.10;96.30
29201;DHT22;16244;51.956;12.980;2022-11-06T07:57:54;5.20;96.60
29201;DHT22;16244;51.956;12.980;2022-11-06T08:00:21;5.30;96.10
29201;DHT22;16244;51.956;12.980;2022-11-06T08:02:50;5.30;96.10
29201;DHT22;16244;51.956;12.980;2022-11-06T08:05:17;5.30;96.00
29201;DHT22;16244;51.956;12.980;2022-11-06T08:07:45;5.50;96.10
29201;DHT22;16244;51.956;12.980;2022-11-06T08:10:13;5.60;95.90
29201;DHT22;16244;51.956;12.980;2022-11-06T08:12:40;5.70;95.80
29201;DHT22;16244;51.956;12.980;2022-11-06T08:15:08;6.00;95.40
29201;DHT22;16244;51.956;12.980;2022-11-06T08:17:36;6.30;95.00
29201;DHT22;16244;51.956;12.980;2022-11-06T08:20:04;6.70;94.20
29201;DHT22;16244;51.956;12.980;2022-11-06T08:22:32;7.20;92.40
29201;DHT22;16244;51.956;12.980;2022-11-06T08:24:59;7.70;91.90
29201;DHT22;16244;51.956;12.980;2022-11-06T08:27:28;8.40;90.10
29201;DHT22;16244;51.956;12.980;2022-11-06T08:29:55;9.00;86.10
29201;DHT22;16244;51.956;12.980;2022-11-06T08:32:22;9.30;84.70
29201;DHT22;16244;51.956;12.980;2022-11-06T08:34:49;9.60;83.00
29201;DHT22;16244;51.956;12.980;2022-11-06T08:37:16;9.80;82.20
29201;DHT22;16244;51.956;12.980;2022-11-06T08:39:43;10.20;80.30
29201;DHT22;16244;51.956;12.980;2022-11-06T08:42:11;10.50;78.50
29201;DHT22;16244;51.956;12.980;2022-11-06T08:44:40;10.50;78.90
29201;DHT22;16244;51.956;12.980;2022-11-06T08:47:08;11.20;77.30
29201;DHT22;16244;51.956;12.980;2022-11-06T08:49:35;11.30;75.90
29201;DHT22;16244;51.956;12.980;2022-11-06T08:52:02;11.40;75.10
29201;DHT22;16244;51.956;12.980;2022-11-06T08:54:29;10.80;76.20
29201;DHT22;16244;51.956;12.980;2022-11-06T08:56:57;10.50;78.50
29201;DHT22;16244;51.956;12.980;2022-11-06T08:59:25;10.70;77.50
29201;DHT22;16244;51.956;12.980;2022-11-06T09:01:55;11.00;76.40
29201;DHT22;16244;51.956;12.980;2022-11-06T09:04:22;10.90;76.60
29201;DHT22;16244;51.956;12.980;2022-11-06T09:06:49;11.10;75.50
29201;DHT22;16244;51.956;12.980;2022-11-06T09:09:16;10.90;75.80
29201;DHT22;16244;51.956;12.980;2022-11-06T09:11:43;10.70;76.60
29201;DHT22;16244;51.956;12.980;2022-11-06T09:14:10;11.20;75.90
29201;DHT22;16244;51.956;12.980;2022-11-06T09:16:37;11.60;74.10
29201;DHT22;16244;51.956;12.980;2022-11-06T09:19:05;11.60;73.80
29201;DHT22;16244;51.956;12.980;2022-11-06T09:21:32;11.40;73.40
29201;DHT22;16244;51.956;12.980;2022-11-06T09:24:00;11.20;75.10
29201;DHT22;16244;51.956;12.980;2022-11-06T09:26:27;11.40;74.40
29201;DHT22;16244;51.956;12.980;2022-11-06T09:28:54;11.50;74.30
29201;DHT22;16244;51.956;12.980;2022-11-06T09:31:22;11.90;72.60
29201;DHT22;16244;51.956;12.980;2022-11-06T09:33:49;12.00;71.90
29201;DHT22;16244;51.956;12.980;2022-11-06T09:36:17;12.00;71.50
29201;DHT22;16244;51.956;12.980;2022-11-06T09:38:45;11.60;72.40
29201;DHT22;16244;51.956;12.980;2022-11-06T09:41:17;12.00;72.40
29201;DHT22;16244;51.956;12.980;2022-11-06T09:43:55;12.40;70.70
29201;DHT22;16244;51.956;12.980;2022-11-06T09:46:26;12.50;69.30
29201;DHT22;16244;51.956;12.980;2022-11-06T09:48:59;12.70;68.70
29201;DHT22;16244;51.956;12.980;2022-11-06T09:51:35;12.90;68.40
29201;DHT22;16244;51.956;12.980;2022-11-06T09:54:10;13.10;68.00
29201;DHT22;16244;51.956;12.980;2022-11-06T09:56:40;13.40;66.60
29201;DHT22;16244;51.956;12.980;2022-11-06T09:59:11;13.50;65.40
29201;DHT22;16244;51.956;12.980;2022-11-06T10:01:41;13.60;66.00
29201;DHT22;16244;51.956;12.980;2022-11-06T10:04:20;13.40;65.30
29201;DHT22;16244;51.956;12.980;2022-11-06T10:06:51;13.40;65.40
29201;DHT22;16244;51.956;12.980;2022-11-06T10:09:19;13.20;65.90
29201;DHT22;16244;51.956;12.980;2022-11-06T10:11:56;13.10;66.40
29201;DHT22;16244;51.956;12.980;2022-11-06T10:14:35;13.10;66.20
29201;DHT22;16244;51.956;12.980;2022-11-06T10:17:15;12.70;67.60
29201;DHT22;16244;51.956;12.980;2022-11-06T10:19:48;12.10;70.00
29201;DHT22;16244;51.956;12.980;2022-11-06T10:22:20;11.40;72.70
29201;DHT22;16244;51.956;12.980;2022-11-06T10:24:55;10.90;74.70
29201;DHT22;16244;51.956;12.980;2022-11-06T10:27:29;10.40;76.70
29201;DHT22;16244;51.956;12.980;2022-11-06T10:30:07;10.10;78.90
29201;DHT22;16244;51.956;12.980;2022-11-06T10:32:55;9.90;79.80
29201;DHT22;16244;51.956;12.980;2022-11-06T10:35:33;9.60;80.30
29201;DHT22;16244;51.956;12.980;2022-11-06T10:38:06;9.60;82.00
29201;DHT22;16244;51.956;12.980;2022-11-06T10:40:36;9.50;82.10
29201;DHT22;16244;51.956;12.980;2022-11-06T10:43:13;9.50;82.90
29201;DHT22;16244;51.956;12.980;2022-11-06T10:45:47;9.50;82.70
29201;DHT22;16244;51.956;12.980;2022-11-06T10:48:21;9.40;82.90
29201;DHT22;16244;51.956;12.980;2022-11-06T10:50:57;9.40;83.50
29201;DHT22;16244;51.956;12.980;2022-11-06T10:53:37;9.50;82.90
29201;DHT22;16244;51.956;12.980;2022-11-06T10:56:25;9.40;82.70
29201;DHT22;16244;51.956;12.980;2022-11-06T10:58:58;9.50;83.90
29201;DHT22;16244;51.956;12.980;2022-11-06T11:01:26;9.50;83.40
29201;DHT22;16244;51.956;12.980;2022-11-06T11:03:53;9.40;83.30
29201;DHT22;16244;51.956;12.980;2022-11-06T11:06:20;9.50;83.50
29201;DHT22;16244;51.956;12.980;2022-11-06T11:08:49;9.50;83.40
29201;DHT22;16244;51.956;12.980;2022-11-06T11:11:20;9.40;83.70
29201;DHT22;16244;51.956;12.980;2022-11-06T11:13:50;9.50;84.40
29201;DHT22;16244;51.956;12.980;2022-11-06T11:16:38;9.50;84.60
29201;DHT22;16244;51.956;12.980;2022-11-06T11:19:19;9.50;83.30
29201;DHT22;16244;51.956;12.980;2022-11-06T11:21:53;9.60;83.20
29201;DHT22;16244;51.956;12.980;2022-11-06T11:24:22;9.60;82.80
29201;DHT22;16244;51.956;12.980;2022-11-06T11:26:51;9.60;82.80
29201;DHT22;16244;51.956;12.980;2022-11-06T11:29:23;9.60;82.90
29201;DHT22;16244;51.956;12.980;2022-11-06T11:31:53;9.60;83.50
29201;DHT22;16244;51.956;12.980;2022-11-06T11:34:23;9.60;82.70
29201;DHT22;16244;51.956;12.980;2022-11-06T11:36:54;9.70;82.00
29201;DHT22;16244;51.956;12.980;2022-11-06T11:39:27;9.70;82.20
29201;DHT22;16244;51.956;12.980;2022-11-06T11:47:31;9.60;82.30
29201;DHT22;16244;51.956;12.980;2022-11-06T11:50:17;9.70;82.00
29201;DHT22;16244;51.956;12.980;2022-11-06T11:52:46;9.70;82.20
29201;DHT22;16244;51.956;12.980;2022-11-06T11:55:17;9.70;81.60
29201;DHT22;16244;51.956;12.980;2022-11-06T11:57:48;9.80;81.80
29201;DHT22;16244;51.956;12.980;2022-11-06T12:00:17;9.70;81.90
29201;DHT22;16244;51.956;12.980;2022-11-06T12:02:47;9.80;81.30
29201;DHT22;16244;51.956;12.980;2022-11-06T12:05:20;9.80;81.60
29201;DHT22;16244;51.956;12.980;2022-11-06T12:07:52;9.80;80.80
29201;DHT22;16244;51.956;12.980;2022-11-06T12:10:26;9.80;81.40
29201;DHT22;16244;51.956;12.980;2022-11-06T12:12:55;9.80;82.00
29201;DHT22;16244;51.956;12.980;2022-11-06T12:15:26;9.80;82.20
29201;DHT22;16244;51.956;12.980;2022-11-06T12:17:58;9.80;82.00
29201;DHT22;16244;51.956;12.980;2022-11-06T12:20:37;9.90;81.40
29201;DHT22;16244;51.956;12.980;2022-11-06T12:23:11;9.90;80.70
29201;DHT22;16244;51.956;12.980;2022-11-06T12:25:42;9.90;81.30
29201;DHT22;16244;51.956;12.980;2022-11-06T12:28:13;9.90;80.80
29201;DHT22;16244;51.956;12.980;2022-11-06T12:30:44;9.90;80.20
29201;DHT22;16244;51.956;12.980;2022-11-06T12:33:15;9.90;80.80
29201;DHT22;16244;51.956;12.980;2022-11-06T12:35:46;9.90;80.50
29201;DHT22;16244;51.956;12.980;2022-11-06T12:38:20;9.90;79.70
29201;DHT22;16244;51.956;12.980;2022-11-06T12:40:55;9.90;80.30
29201;DHT22;16244;51.956;12.980;2022-11-06T12:43:30;10.00;80.20
29201;DHT22;16244;51.956;12.980;2022-11-06T12:49:17;10.00;80.40
29201;DHT22;16244;51.956;12.980;2022-11-06T12:51:57;9.90;80.60
29201;DHT22;16244;51.956;12.980;2022-11-06T12:54:44;9.90;80.90
29201;DHT22;16244;51.956;12.980;2022-11-06T12:57:24;9.90;81.30
29201;DHT22;16244;51.956;12.980;2022-11-06T13:00:03;9.90;80.70
29201;DHT22;16244;51.956;12.980;2022-11-06T13:02:50;9.90;81.20
29201;DHT22;16244;51.956;12.980;2022-11-06T13:05:27;10.00;79.50
29201;DHT22;16244;51.956;12.980;2022-11-06T13:08:07;9.90;78.70
29201;DHT22;16244;51.956;12.980;2022-11-06T13:10:47;9.90;80.30
29201;DHT22;16244;51.956;12.980;2022-11-06T13:13:35;9.90;79.80
29201;DHT22;16244;51.956;12.980;2022-11-06T13:16:13;10.00;79.00
29201;DHT22;16244;51.956;12.980;2022-11-06T13:18:45;10.00;77.90
29201;DHT22;16244;51.956;12.980;2022-11-06T13:21:17;10.00;78.30
29201;DHT22;16244;51.956;12.980;2022-11-06T13:23:49;10.00;78.20
29201;DHT22;16244;51.956;12.980;2022-11-06T13:26:22;9.90;78.50
29201;DHT22;16244;51.956;12.980;2022-11-06T13:28:55;9.90;80.50
29201;DHT22;16244;51.956;12.980;2022-11-06T13:31:28;9.90;79.90
29201;DHT22;16244;51.956;12.980;2022-11-06T13:33:58;9.90;79.40
29201;DHT22;16244;51.956;12.980;2022-11-06T13:36:29;9.90;79.60
29201;DHT22;16244;51.956;12.980;2022-11-06T13:39:02;9.90;78.90
29201;DHT22;16244;51.956;12.980;2022-11-06T13:41:31;9.90;78.90
29201;DHT22;16244;51.956;12.980;2022-11-06T13:44:02;9.90;79.30
29201;DHT22;16244;51.956;12.980;2022-11-06T13:46:35;9.80;79.10
29201;DHT22;16244;51.956;12.980;2022-11-06T13:49:11;9.90;78.50
29201;DHT22;16244;51.956;12.980;2022-11-06T13:51:44;9.90;77.50
29201;DHT22;16244;51.956;12.980;2022-11-06T13:54:19;9.90;77.40
29201;DHT22;16244;51.956;12.980;2022-11-06T13:56:59;10.00;76.40
29201;DHT22;16244;51.956;12.980;2022-11-06T13:59:44;10.00;76.80
29201;DHT22;16244;51.956;12.980;2022-11-06T14:02:42;10.00;77.20
29201;DHT22;16244;51.956;12.980;2022-11-06T14:08:13;9.90;77.80
29201;DHT22;16244;51.956;12.980;2022-11-06T14:10:51;9.90;77.60
29201;DHT22;16244;51.956;12.980;2022-11-06T14:13:23;9.90;76.10
29201;DHT22;16244;51.956;12.980;2022-11-06T14:16:00;9.90;77.00
29201;DHT22;16244;51.956;12.980;2022-11-06T14:18:28;9.90;77.70
29201;DHT22;16244;51.956;12.980;2022-11-06T14:21:26;9.80;77.80
29201;DHT22;16244;51.956;12.980;2022-11-06T14:24:04;9.70;78.80
29201;DHT22;16244;51.956;12.980;2022-11-06T14:26:37;9.70;78.50
29201;DHT22;16244;51.956;12.980;2022-11-06T14:32:41;9.60;78.50
29201;DHT22;16244;51.956;12.980;2022-11-06T14:38:35;9.40;80.30
29201;DHT22;16244;51.956;12.980;2022-11-06T14:44:45;9.20;82.40
29201;DHT22;16244;51.956;12.980;2022-11-06T14:47:28;9.00;83.90
29201;DHT22;16244;51.956;12.980;2022-11-06T14:50:04;8.90;84.80
29201;DHT22;16244;51.956;12.980;2022-11-06T14:52:45;8.70;85.40
29201;DHT22;16244;51.956;12.980;2022-11-06T14:55:29;8.60;85.70
29201;DHT22;16244;51.956;12.980;2022-11-06T14:58:00;8.60;84.60
29201;DHT22;16244;51.956;12.980;2022-11-06T15:00:46;8.50;85.70
29201;DHT22;16244;51.956;12.980;2022-11-06T15:03:27;8.30;86.30
29201;DHT22;16244;51.956;12.980;2022-11-06T15:06:00;8.30;86.80
29201;DHT22;16244;51.956;12.980;2022-11-06T15:08:51;8.10;87.00
29201;DHT22;16244;51.956;12.980;2022-11-06T15:11:51;8.00;87.30
29201;DHT22;16244;51.956;12.980;2022-11-06T15:14:53;7.90;87.70
29201;DHT22;16244;51.956;12.980;2022-11-06T15:17:24;7.80;88.00
29201;DHT22;16244;51.956;12.980;2022-11-06T15:20:12;7.60;88.40
29201;DHT22;16244;51.956;12.980;2022-11-06T15:22:45;7.60;88.70
29201;DHT22;16244;51.956;12.980;2022-11-06T15:25:20;7.50;89.20
29201;DHT22;16244;51.956;12.980;2022-11-06T15:27:55;7.30;89.50
29201;DHT22;16244;51.956;12.980;2022-11-06T15:30:22;7.30;89.60
29201;DHT22;16244;51.956;12.980;2022-11-06T15:32:52;7.20;89.70
29201;DHT22;16244;51.956;12.980;2022-11-06T15:35:23;7.10;89.80
29201;DHT22;16244;51.956;12.980;2022-11-06T15:37:55;7.00;90.00
29201;DHT22;16244;51.956;12.980;2022-11-06T15:40:25;6.90;90.00
29201;DHT22;16244;51.956;12.980;2022-11-06T15:42:54;6.90;90.20
29201;DHT22;16244;51.956;12.980;2022-11-06T15:45:24;6.70;90.30
29201;DHT22;16244;51.956;12.980;2022-11-06T15:47:53;6.70;90.40
29201;DHT22;16244;51.956;12.980;2022-11-06T15:50:24;6.70;90.40
29201;DHT22;16244;51.956;12.980;2022-11-06T15:52:51;6.60;90.40
29201;DHT22;16244;51.956;12.980;2022-11-06T15:55:26;6.60;90.40
29201;DHT22;16244;51.956;12.980;2022-11-06T15:58:04;6.50;90.40
29201;DHT22;16244;51.956;12.980;2022-11-06T16:00:33;6.40;90.70
29201;DHT22;16244;51.956;12.980;2022-11-06T16:03:03;6.30;90.80
29201;DHT22;16244;51.956;12.980;2022-11-06T16:05:34;6.20;91.10
29201;DHT22;16244;51.956;12.980;2022-11-06T16:08:04;6.10;91.30
29201;DHT22;16244;51.956;12.980;2022-11-06T16:10:34;6.00;91.50
29201;DHT22;16244;51.956;12.980;2022-11-06T16:13:02;6.00;91.60
29201;DHT22;16244;51.956;12.980;2022-11-06T16:15:47;6.00;91.30
29201;DHT22;16244;51.956;12.980;2022-11-06T16:18:17;6.00;91.30